• Join FlightAware (Why Join?)
  • Login
  • US Flag 
11:47AM EST


 

Airport Tracker/Info


-or-


 

Live Flight TrackerFlight Track Log ✈ EJA618 ✈ 10-Sep-2013 ✈ KJKA - KINT

Flight Track Log - Related Links

Times and Time Zones

All times are in EDT time to prevent confusion due to time zone crossing. See the EJA618 flight status page for this flight to view local times or setup timezone preferences in your user account.

Time Position Orientation Groundspeed Altitude Reporting Facility
EDT Latitude Longitude Course Direction KTS MPH feet Rate Location/Type
01:46PM 30.2903 -87.6553 26° Northeast 169 194 1,200  Level Jacksonville Center
01:47PM 30.3733 -87.6089 26° Northeast 199 229 7,800 3,300 Climbing Jacksonville Center
01:48PM 30.4308 -87.5781 25° Northeast 259 298 10,000 1,140 Climbing Jacksonville Center
01:49PM 30.5075 -87.5383 24° Northeast 323 372 10,100  Climbing Jacksonville Center
01:50PM 30.5881 -87.5014 22° Northeast 328 377 10,000 -60 Descending Jacksonville Center
01:51PM 30.6625 -87.4639 23° Northeast 302 348 10,000  Level Jacksonville Center
01:52PM 30.7417 -87.4072 32° Northeast 308 354 10,000 840 Level Jacksonville Center
01:53PM 30.8047 -87.3353 44° Northeast 321 369 11,700 1,740 Climbing Jacksonville Center
01:54PM 30.8211 -87.2297 80° East 305 351 13,500 1,920 Climbing Jacksonville Center
01:55PM 30.8142 -87.1206 94° East 312 359 15,600 2,160 Climbing Jacksonville Center
01:56PM 30.8739 -87.0217 55° Northeast 329 379 17,900 1,980 Climbing Jacksonville Center
01:57PM 30.9411 -86.9444 45° Northeast 329 379 19,600 1,800 Climbing Jacksonville Center
01:58PM 31.0125 -86.8653 44° Northeast 335 386 21,500 1,740 Climbing Jacksonville Center
01:59PM 31.0750 -86.8000 42° Northeast 340 391 23,100 1,440 Climbing Jacksonville Center
02:01PM 31.2117 -86.6583 42° Northeast 351 404 25,700 1,260 Climbing Atlanta Center
02:02PM 31.3125 -86.6297 14° North 346 398 26,800 1,140 Climbing Atlanta Center
02:03PM 31.4114 -86.5961 16° North 356 410 28,000 1,080 Climbing Atlanta Center
02:04PM 31.5164 -86.5625 15° North 369 425 29,000 1,200 Climbing Atlanta Center
02:05PM 31.6194 -86.5264 17° North 375 432 30,500 1,560 Climbing Atlanta Center
02:06PM 31.7122 -86.4728 26° Northeast 381 438 32,200 1,560 Climbing Atlanta Center
02:07PM 31.7828 -86.3817 48° Northeast 365 420 33,700 900 Climbing Atlanta Center
02:08PM 31.8514 -86.2908 48° Northeast 365 420 34,000 840 Climbing Atlanta Center
02:09PM 31.9175 -86.2017 49° Northeast 365 420 35,400 1,500 Climbing Atlanta Center
02:10PM 31.9839 -86.1128 49° Northeast 360 414 37,000 1,500 Climbing Atlanta Center
02:11PM 32.0561 -86.0264 45° Northeast 360 414 38,400 960 Climbing Atlanta Center
02:12PM 32.1264 -85.9372 47° Northeast 360 414 39,000 300 Climbing Atlanta Center
02:13PM 32.1969 -85.8428 49° Northeast 365 420 39,000  Level Atlanta Center
02:14PM 32.2714 -85.7411 49° Northeast 365 420 39,000  Level Atlanta Center
02:15PM 32.3392 -85.6539 47° Northeast 365 420 39,000  Level Atlanta Center
02:16PM 32.4031 -85.5692 48° Northeast 354 407 39,000 780 Level Atlanta Center
02:17PM 32.4686 -85.4839 48° Northeast 354 407 40,600 960 Climbing Atlanta Center
02:18PM 32.5303 -85.3989 49° Northeast 349 402 41,000 180 Climbing Atlanta Center
02:19PM 32.6022 -85.3111 46° Northeast 349 402 41,000  Level Atlanta Center
02:20PM 32.6697 -85.2158 50° Northeast 361 415 41,000  Level Atlanta Center
02:21PM 32.7394 -85.1253 48° Northeast 366 421 41,000  Level Atlanta Center
02:22PM 32.8069 -85.0422 46° Northeast 373 429 41,000  Level Atlanta Center
02:23PM 32.8744 -84.9464 50° Northeast 380 437 41,000  Level Atlanta Center
02:24PM 32.9483 -84.8508 47° Northeast 385 443 41,000  Level Atlanta Center
02:25PM 33.0242 -84.7450 49° Northeast 385 443 41,000  Level Atlanta Center
02:26PM 33.0936 -84.6489 49° Northeast 385 443 41,000  Level Atlanta Center
02:27PM 33.1650 -84.5575 47° Northeast 385 443 41,000  Level Atlanta Center
02:28PM 33.2342 -84.4611 49° Northeast 385 443 41,000  Level Atlanta Center
02:29PM 33.3033 -84.3669 49° Northeast 385 443 41,000  Level Atlanta Center
02:30PM 33.3703 -84.2725 50° Northeast 380 437 41,000  Level Atlanta Center
02:31PM 33.4394 -84.1783 49° Northeast 380 437 41,000  Level Atlanta Center
02:32PM 33.5083 -84.0811 50° Northeast 380 437 41,000  Level Atlanta Center
02:33PM 33.5772 -83.9839 50° Northeast 380 437 41,000  Level Atlanta Center
02:34PM 33.6458 -83.8917 48° Northeast 380 437 41,000  Level Atlanta Center
02:35PM 33.7167 -83.7967 48° Northeast 380 437 41,000 -300 Level Atlanta Center
02:36PM 33.7856 -83.7014 49° Northeast 385 443 40,500 -960 Descending Atlanta Center
02:37PM 33.8519 -83.6086 49° Northeast 375 432 39,100 -1,380 Descending Atlanta Center
02:38PM 33.9206 -83.5131 49° Northeast 370 426 37,800 -1,260 Descending Atlanta Center
02:39PM 33.9742 -83.4250 54° Northeast 370 426 36,600 -1,500 Descending Atlanta Center
02:40PM 34.0239 -83.3119 62° Northeast 364 419 34,800 -1,680 Descending Atlanta Center
02:41PM 34.0753 -83.2061 60° Northeast 369 425 33,300 -900 Descending Atlanta Center
02:42PM 34.1267 -83.1003 60° Northeast 364 419 33,000 -180 Descending Atlanta Center
02:43PM 34.1844 -83.0067 53° Northeast 351 404 33,000  Level Atlanta Center
02:44PM 34.2567 -82.9153 46° Northeast 358 412 33,000  Level Atlanta Center
02:45PM 34.3267 -82.8289 46° Northeast 358 412 33,000  Level Atlanta Center
02:47PM 34.4174 -82.7799 49° Northeast  Level FlightAware Approximate
02:47PM 34.4769 -82.6328 49° Northeast 369 425 33,000  Level Atlanta Center
02:48PM 34.5572 -82.5381 44° Northeast 381 438 33,000  Level Atlanta Center
02:49PM 34.6353 -82.4383 46° Northeast 387 445 33,000  Level Atlanta Center
02:50PM 34.7133 -82.3381 47° Northeast 392 451 33,000 -180 Level Atlanta Center
02:51PM 34.7933 -82.2378 46° Northeast 399 459 32,700 -1,200 Descending Atlanta Center
02:52PM 34.8689 -82.1425 46° Northeast 399 459 30,700 -1,980 Descending Atlanta Center
02:53PM 34.9467 -82.0419 47° Northeast 394 453 28,800 -1,800 Descending Atlanta Center
02:54PM 35.0264 -81.9461 45° Northeast 394 453 27,200 -1,740 Descending Atlanta Center
02:55PM 35.1189 -81.8628 36° Northeast 404 465 25,400 -1,560 Descending Atlanta Center
02:56PM 35.2178 -81.7864 32° Northeast 410 472 24,100 -900 Descending Atlanta Center
02:57PM 35.3122 -81.7100 33° Northeast 411 473 23,700 -720 Descending Atlanta Center
02:58PM 35.4028 -81.6386 33° Northeast 395 455 22,700 -960 Descending Atlanta Center
02:59PM 35.4869 -81.5722 33° Northeast 389 448 21,800 -1,080 Descending Atlanta Center
03:00PM 35.5814 -81.4981 33° Northeast 394 453 20,600 -1,320 Descending Atlanta Center
03:01PM 35.6778 -81.4183 34° Northeast 406 467 19,200 -840 Descending Atlanta Center
03:02PM 35.7783 -81.3383 33° Northeast 401 461 19,000 -120 Descending Atlanta Center
03:03PM 35.8683 -81.2661 33° Northeast 393 452 19,000  Level Atlanta Center
03:04PM 35.9564 -81.1914 34° Northeast 381 438 19,000 -540 Level Atlanta Center
03:05PM 36.0231 -81.0967 49° Northeast 361 415 18,000 -1,680 Descending Atlanta Center
03:06PM 36.0553 -80.9694 73° East 361 415 15,700 -2,400 Descending Atlanta Center
03:07PM 36.0897 -80.8475 71° East 367 422 13,200 -2,280 Descending Atlanta Center
03:08PM 36.1164 -80.7514 71° East 355 409 11,200 -1,140 Descending Atlanta Center
03:09PM 36.1281 -80.6453 82° East 324 373 11,000 -300 Descending Atlanta Center
03:10PM 36.1122 -80.5200 99° East 324 373 10,600 -1,140 Descending Atlanta Center
03:11PM 36.0986 -80.4181 99° East 316 364 8,800 -2,280 Descending Atlanta Center
03:12PM 36.0900 -80.3336 97° East 293 337 6,100 -2,760 Descending Atlanta Center
03:13PM 36.0769 -80.2494 101° East 280 322 3,300 -2,040 Descending Atlanta Center
03:14PM 36.0794 -80.1953 87° East 196 226 2,100 3,840 Descending Atlanta Center
03:15PM 36.1058 -80.1761 30° Northeast 138 159 11,000 4,440 Climbing Atlanta Center
03:16PM 36.1150 -80.1294 76° East 138 159 11,000  Level Atlanta Center
03:18PM 36.1333 -80.2167 292° West  Level FlightAware Approximate